sensor_id;sensor_type;location;lat;lon;timestamp;temperature;humidity
1367;DHT22;16877;48.810;9.282;2024-03-08T00:00:58;15.90;66.70
1367;DHT22;16877;48.810;9.282;2024-03-08T00:03:25;16.00;66.90
1367;DHT22;16877;48.810;9.282;2024-03-08T00:05:53;16.10;67.00
1367;DHT22;16877;48.810;9.282;2024-03-08T00:08:20;16.00;67.00
1367;DHT22;16877;48.810;9.282;2024-03-08T00:10:47;15.70;66.50
1367;DHT22;16877;48.810;9.282;2024-03-08T00:13:13;15.80;66.70
1367;DHT22;16877;48.810;9.282;2024-03-08T00:15:40;15.60;66.40
1367;DHT22;16877;48.810;9.282;2024-03-08T00:18:07;16.00;67.00
1367;DHT22;16877;48.810;9.282;2024-03-08T00:20:34;15.60;66.50
1367;DHT22;16877;48.810;9.282;2024-03-08T00:23:02;15.70;66.60
1367;DHT22;16877;48.810;9.282;2024-03-08T00:25:29;15.60;66.50
1367;DHT22;16877;48.810;9.282;2024-03-08T00:27:56;15.70;66.60
1367;DHT22;16877;48.810;9.282;2024-03-08T00:30:23;15.60;66.60
1367;DHT22;16877;48.810;9.282;2024-03-08T00:32:50;15.50;66.50
1367;DHT22;16877;48.810;9.282;2024-03-08T00:35:17;15.40;66.50
1367;DHT22;16877;48.810;9.282;2024-03-08T00:37:44;15.70;66.80
1367;DHT22;16877;48.810;9.282;2024-03-08T00:40:14;15.60;66.80
1367;DHT22;16877;48.810;9.282;2024-03-08T00:42:41;15.30;66.50
1367;DHT22;16877;48.810;9.282;2024-03-08T00:45:10;15.40;66.60
1367;DHT22;16877;48.810;9.282;2024-03-08T00:47:36;15.40;66.60
1367;DHT22;16877;48.810;9.282;2024-03-08T00:50:04;15.50;66.80
1367;DHT22;16877;48.810;9.282;2024-03-08T00:52:30;15.50;66.90
1367;DHT22;16877;48.810;9.282;2024-03-08T00:54:57;15.20;66.60
1367;DHT22;16877;48.810;9.282;2024-03-08T00:57:25;15.40;66.80
1367;DHT22;16877;48.810;9.282;2024-03-08T00:59:53;15.30;66.70
1367;DHT22;16877;48.810;9.282;2024-03-08T01:02:20;15.60;67.00
1367;DHT22;16877;48.810;9.282;2024-03-08T01:04:48;15.40;66.80
1367;DHT22;16877;48.810;9.282;2024-03-08T01:07:15;15.10;66.40
1367;DHT22;16877;48.810;9.282;2024-03-08T01:09:42;15.40;66.80
1367;DHT22;16877;48.810;9.282;2024-03-08T01:12:09;15.30;66.80
1367;DHT22;16877;48.810;9.282;2024-03-08T01:14:37;15.20;66.40
1367;DHT22;16877;48.810;9.282;2024-03-08T01:17:04;15.30;66.60
1367;DHT22;16877;48.810;9.282;2024-03-08T01:19:31;15.10;66.40
1367;DHT22;16877;48.810;9.282;2024-03-08T01:21:58;15.30;66.60
1367;DHT22;16877;48.810;9.282;2024-03-08T01:24:25;15.40;66.70
1367;DHT22;16877;48.810;9.282;2024-03-08T01:26:52;15.20;66.50
1367;DHT22;16877;48.810;9.282;2024-03-08T01:29:18;15.30;66.60
1367;DHT22;16877;48.810;9.282;2024-03-08T01:31:46;15.30;66.60
1367;DHT22;16877;48.810;9.282;2024-03-08T01:34:13;15.40;66.80
1367;DHT22;16877;48.810;9.282;2024-03-08T01:36:40;15.00;66.30
1367;DHT22;16877;48.810;9.282;2024-03-08T01:39:06;15.40;66.80
1367;DHT22;16877;48.810;9.282;2024-03-08T01:41:33;15.20;66.50
1367;DHT22;16877;48.810;9.282;2024-03-08T01:44:01;15.40;66.70
1367;DHT22;16877;48.810;9.282;2024-03-08T01:46:28;15.10;66.30
1367;DHT22;16877;48.810;9.282;2024-03-08T01:48:57;15.20;66.50
1367;DHT22;16877;48.810;9.282;2024-03-08T01:51:23;15.00;66.20
1367;DHT22;16877;48.810;9.282;2024-03-08T01:53:50;14.90;66.10
1367;DHT22;16877;48.810;9.282;2024-03-08T01:56:17;14.90;66.20
1367;DHT22;16877;48.810;9.282;2024-03-08T01:58:44;14.90;66.10
1367;DHT22;16877;48.810;9.282;2024-03-08T02:01:12;14.90;66.10
1367;DHT22;16877;48.810;9.282;2024-03-08T02:03:40;15.00;66.30
1367;DHT22;16877;48.810;9.282;2024-03-08T02:06:11;15.00;66.30
1367;DHT22;16877;48.810;9.282;2024-03-08T02:08:40;15.00;66.40
1367;DHT22;16877;48.810;9.282;2024-03-08T02:11:08;15.00;66.40
1367;DHT22;16877;48.810;9.282;2024-03-08T02:13:35;15.00;66.40
1367;DHT22;16877;48.810;9.282;2024-03-08T02:16:02;15.20;66.70
1367;DHT22;16877;48.810;9.282;2024-03-08T02:18:30;15.10;66.50
1367;DHT22;16877;48.810;9.282;2024-03-08T02:21:02;15.00;66.40
1367;DHT22;16877;48.810;9.282;2024-03-08T02:23:29;14.90;66.30
1367;DHT22;16877;48.810;9.282;2024-03-08T02:25:56;15.00;66.40
1367;DHT22;16877;48.810;9.282;2024-03-08T02:28:24;15.00;66.40
1367;DHT22;16877;48.810;9.282;2024-03-08T02:30:52;15.20;66.60
1367;DHT22;16877;48.810;9.282;2024-03-08T02:33:20;14.90;66.30
1367;DHT22;16877;48.810;9.282;2024-03-08T02:35:47;14.80;66.30
1367;DHT22;16877;48.810;9.282;2024-03-08T02:38:16;15.10;66.50
1367;DHT22;16877;48.810;9.282;2024-03-08T02:40:44;14.80;66.30
1367;DHT22;16877;48.810;9.282;2024-03-08T02:43:11;14.90;66.40
1367;DHT22;16877;48.810;9.282;2024-03-08T02:45:38;14.90;66.30
1367;DHT22;16877;48.810;9.282;2024-03-08T02:48:06;14.80;66.10
1367;DHT22;16877;48.810;9.282;2024-03-08T02:50:32;14.80;66.10
1367;DHT22;16877;48.810;9.282;2024-03-08T02:53:00;14.60;65.90
1367;DHT22;16877;48.810;9.282;2024-03-08T02:55:28;14.70;66.00
1367;DHT22;16877;48.810;9.282;2024-03-08T02:57:55;14.70;66.00
1367;DHT22;16877;48.810;9.282;2024-03-08T03:00:22;14.90;66.30
1367;DHT22;16877;48.810;9.282;2024-03-08T03:02:50;14.70;66.00
1367;DHT22;16877;48.810;9.282;2024-03-08T03:05:19;14.70;66.00
1367;DHT22;16877;48.810;9.282;2024-03-08T03:07:45;14.70;66.00
1367;DHT22;16877;48.810;9.282;2024-03-08T03:10:14;14.70;66.00
1367;DHT22;16877;48.810;9.282;2024-03-08T03:12:44;14.50;65.70
1367;DHT22;16877;48.810;9.282;2024-03-08T03:15:11;14.60;65.80
1367;DHT22;16877;48.810;9.282;2024-03-08T03:17:38;14.40;65.60
1367;DHT22;16877;48.810;9.282;2024-03-08T03:20:07;14.70;66.00
1367;DHT22;16877;48.810;9.282;2024-03-08T03:22:38;14.70;66.00
1367;DHT22;16877;48.810;9.282;2024-03-08T03:25:07;14.60;65.90
1367;DHT22;16877;48.810;9.282;2024-03-08T03:27:35;14.70;66.00
1367;DHT22;16877;48.810;9.282;2024-03-08T03:30:04;14.50;65.70
1367;DHT22;16877;48.810;9.282;2024-03-08T03:32:58;14.50;65.80
1367;DHT22;16877;48.810;9.282;2024-03-08T03:35:26;14.50;65.70
1367;DHT22;16877;48.810;9.282;2024-03-08T03:37:55;14.50;65.80
1367;DHT22;16877;48.810;9.282;2024-03-08T03:40:32;14.50;65.80
1367;DHT22;16877;48.810;9.282;2024-03-08T03:42:59;14.50;65.70
1367;DHT22;16877;48.810;9.282;2024-03-08T03:45:26;14.30;65.50
1367;DHT22;16877;48.810;9.282;2024-03-08T03:47:53;14.60;65.90
1367;DHT22;16877;48.810;9.282;2024-03-08T03:50:21;14.50;65.80
1367;DHT22;16877;48.810;9.282;2024-03-08T03:52:49;14.50;65.80
1367;DHT22;16877;48.810;9.282;2024-03-08T03:55:15;14.20;65.50
1367;DHT22;16877;48.810;9.282;2024-03-08T03:57:42;14.30;65.60
1367;DHT22;16877;48.810;9.282;2024-03-08T04:00:11;14.40;65.70
1367;DHT22;16877;48.810;9.282;2024-03-08T04:02:38;14.20;65.50
1367;DHT22;16877;48.810;9.282;2024-03-08T04:05:06;14.30;65.50
1367;DHT22;16877;48.810;9.282;2024-03-08T04:07:35;14.20;65.50
1367;DHT22;16877;48.810;9.282;2024-03-08T04:10:02;14.20;65.60
1367;DHT22;16877;48.810;9.282;2024-03-08T04:12:29;14.40;65.80
1367;DHT22;16877;48.810;9.282;2024-03-08T04:14:56;13.90;65.30
1367;DHT22;16877;48.810;9.282;2024-03-08T04:17:23;14.10;65.70
1367;DHT22;16877;48.810;9.282;2024-03-08T04:19:50;14.10;65.90
1367;DHT22;16877;48.810;9.282;2024-03-08T04:22:17;14.10;65.90
1367;DHT22;16877;48.810;9.282;2024-03-08T04:24:45;14.00;65.80
1367;DHT22;16877;48.810;9.282;2024-03-08T04:27:12;14.00;65.90
1367;DHT22;16877;48.810;9.282;2024-03-08T04:29:39;13.90;66.00
1367;DHT22;16877;48.810;9.282;2024-03-08T04:32:07;13.90;66.10
1367;DHT22;16877;48.810;9.282;2024-03-08T04:34:34;13.80;66.00
1367;DHT22;16877;48.810;9.282;2024-03-08T04:37:01;13.90;66.20
1367;DHT22;16877;48.810;9.282;2024-03-08T04:39:27;13.90;66.30
1367;DHT22;16877;48.810;9.282;2024-03-08T04:41:57;13.80;66.30
1367;DHT22;16877;48.810;9.282;2024-03-08T04:44:26;13.70;66.40
1367;DHT22;16877;48.810;9.282;2024-03-08T04:46:52;13.70;66.40
1367;DHT22;16877;48.810;9.282;2024-03-08T04:49:19;13.60;66.40
1367;DHT22;16877;48.810;9.282;2024-03-08T04:51:47;13.70;66.50
1367;DHT22;16877;48.810;9.282;2024-03-08T04:54:14;13.70;66.70
1367;DHT22;16877;48.810;9.282;2024-03-08T04:56:40;13.70;66.70
1367;DHT22;16877;48.810;9.282;2024-03-08T04:59:09;13.70;66.70
1367;DHT22;16877;48.810;9.282;2024-03-08T05:01:35;13.70;66.80
1367;DHT22;16877;48.810;9.282;2024-03-08T05:04:03;13.50;67.50
1367;DHT22;16877;48.810;9.282;2024-03-08T05:06:31;13.60;66.70
1367;DHT22;16877;48.810;9.282;2024-03-08T05:08:58;13.70;67.00
1367;DHT22;16877;48.810;9.282;2024-03-08T05:11:25;13.60;66.90
1367;DHT22;16877;48.810;9.282;2024-03-08T05:13:52;13.60;67.00
1367;DHT22;16877;48.810;9.282;2024-03-08T05:16:21;13.60;67.10
1367;DHT22;16877;48.810;9.282;2024-03-08T05:18:48;13.60;67.00
1367;DHT22;16877;48.810;9.282;2024-03-08T05:21:15;13.50;66.90
1367;DHT22;16877;48.810;9.282;2024-03-08T05:23:45;13.60;67.10
1367;DHT22;16877;48.810;9.282;2024-03-08T05:26:12;13.70;68.10
1367;DHT22;16877;48.810;9.282;2024-03-08T05:28:39;13.60;67.10
1367;DHT22;16877;48.810;9.282;2024-03-08T05:31:06;13.70;67.20
1367;DHT22;16877;48.810;9.282;2024-03-08T05:33:34;13.60;67.00
1367;DHT22;16877;48.810;9.282;2024-03-08T05:36:00;13.70;67.10
1367;DHT22;16877;48.810;9.282;2024-03-08T05:38:27;13.80;67.10
1367;DHT22;16877;48.810;9.282;2024-03-08T05:40:54;13.70;67.10
1367;DHT22;16877;48.810;9.282;2024-03-08T05:43:21;13.70;67.10
1367;DHT22;16877;48.810;9.282;2024-03-08T05:45:48;13.70;67.00
1367;DHT22;16877;48.810;9.282;2024-03-08T05:48:15;13.90;67.20
1367;DHT22;16877;48.810;9.282;2024-03-08T05:50:45;13.90;67.20
1367;DHT22;16877;48.810;9.282;2024-03-08T05:53:12;13.70;67.00
1367;DHT22;16877;48.810;9.282;2024-03-08T05:55:38;13.70;67.10
1367;DHT22;16877;48.810;9.282;2024-03-08T05:58:06;13.70;67.00
1367;DHT22;16877;48.810;9.282;2024-03-08T06:00:33;13.90;67.20
1367;DHT22;16877;48.810;9.282;2024-03-08T06:03:01;13.80;67.10
1367;DHT22;16877;48.810;9.282;2024-03-08T06:05:28;13.70;67.00
1367;DHT22;16877;48.810;9.282;2024-03-08T06:07:56;13.60;67.00
1367;DHT22;16877;48.810;9.282;2024-03-08T06:10:23;13.70;67.20
1367;DHT22;16877;48.810;9.282;2024-03-08T06:12:50;13.60;67.00
1367;DHT22;16877;48.810;9.282;2024-03-08T06:15:17;13.70;67.20
1367;DHT22;16877;48.810;9.282;2024-03-08T06:17:46;13.90;67.50
1367;DHT22;16877;48.810;9.282;2024-03-08T06:20:13;13.70;67.20
1367;DHT22;16877;48.810;9.282;2024-03-08T06:22:40;13.80;67.30
1367;DHT22;16877;48.810;9.282;2024-03-08T06:25:09;13.90;67.50
1367;DHT22;16877;48.810;9.282;2024-03-08T06:27:36;13.70;67.50
1367;DHT22;16877;48.810;9.282;2024-03-08T06:30:04;13.60;67.30
1367;DHT22;16877;48.810;9.282;2024-03-08T06:32:31;13.70;67.60
1367;DHT22;16877;48.810;9.282;2024-03-08T06:35:01;13.60;67.60
1367;DHT22;16877;48.810;9.282;2024-03-08T06:37:27;13.70;67.70
1367;DHT22;16877;48.810;9.282;2024-03-08T06:39:54;13.70;67.70
1367;DHT22;16877;48.810;9.282;2024-03-08T06:42:22;13.90;67.80
1367;DHT22;16877;48.810;9.282;2024-03-08T06:44:49;13.80;67.80
1367;DHT22;16877;48.810;9.282;2024-03-08T06:47:16;13.70;67.50
1367;DHT22;16877;48.810;9.282;2024-03-08T06:49:43;13.80;67.70
1367;DHT22;16877;48.810;9.282;2024-03-08T06:52:09;13.90;67.80
1367;DHT22;16877;48.810;9.282;2024-03-08T06:54:36;13.70;67.60
1367;DHT22;16877;48.810;9.282;2024-03-08T06:57:04;13.80;67.70
1367;DHT22;16877;48.810;9.282;2024-03-08T06:59:32;13.90;67.70
1367;DHT22;16877;48.810;9.282;2024-03-08T07:02:01;13.80;67.60
1367;DHT22;16877;48.810;9.282;2024-03-08T07:04:27;13.70;67.40
1367;DHT22;16877;48.810;9.282;2024-03-08T07:06:55;13.70;67.50
1367;DHT22;16877;48.810;9.282;2024-03-08T07:09:22;13.70;67.40
1367;DHT22;16877;48.810;9.282;2024-03-08T07:11:49;13.80;67.70
1367;DHT22;16877;48.810;9.282;2024-03-08T07:14:21;13.80;67.60
1367;DHT22;16877;48.810;9.282;2024-03-08T07:16:49;13.60;67.20
1367;DHT22;16877;48.810;9.282;2024-03-08T07:19:17;13.90;67.60
1367;DHT22;16877;48.810;9.282;2024-03-08T07:21:44;13.80;67.50
1367;DHT22;16877;48.810;9.282;2024-03-08T07:24:13;13.90;67.70
1367;DHT22;16877;48.810;9.282;2024-03-08T07:26:58;14.00;67.50
1367;DHT22;16877;48.810;9.282;2024-03-08T07:29:25;13.90;67.40
1367;DHT22;16877;48.810;9.282;2024-03-08T07:31:53;14.10;67.70
1367;DHT22;16877;48.810;9.282;2024-03-08T07:34:33;14.00;67.50
1367;DHT22;16877;48.810;9.282;2024-03-08T07:36:59;14.30;67.70
1367;DHT22;16877;48.810;9.282;2024-03-08T07:39:26;14.30;67.70
1367;DHT22;16877;48.810;9.282;2024-03-08T07:41:53;14.40;67.90
1367;DHT22;16877;48.810;9.282;2024-03-08T07:44:20;14.20;67.60
1367;DHT22;16877;48.810;9.282;2024-03-08T07:46:47;14.20;67.60
1367;DHT22;16877;48.810;9.282;2024-03-08T07:49:15;14.30;67.50
1367;DHT22;16877;48.810;9.282;2024-03-08T07:51:41;14.30;67.40
1367;DHT22;16877;48.810;9.282;2024-03-08T07:54:08;14.30;67.30
1367;DHT22;16877;48.810;9.282;2024-03-08T07:56:35;14.30;67.20
1367;DHT22;16877;48.810;9.282;2024-03-08T07:59:02;14.30;67.20
1367;DHT22;16877;48.810;9.282;2024-03-08T08:01:29;14.30;67.10
1367;DHT22;16877;48.810;9.282;2024-03-08T08:03:56;14.60;67.30
1367;DHT22;16877;48.810;9.282;2024-03-08T08:06:24;14.20;66.90
1367;DHT22;16877;48.810;9.282;2024-03-08T08:08:51;14.50;67.20
1367;DHT22;16877;48.810;9.282;2024-03-08T08:11:17;14.40;66.90
1367;DHT22;16877;48.810;9.282;2024-03-08T08:13:45;14.60;67.20
1367;DHT22;16877;48.810;9.282;2024-03-08T08:16:12;14.50;67.10
1367;DHT22;16877;48.810;9.282;2024-03-08T08:18:39;14.30;66.80
1367;DHT22;16877;48.810;9.282;2024-03-08T08:21:06;14.50;67.00
1367;DHT22;16877;48.810;9.282;2024-03-08T08:23:34;14.50;66.80
1367;DHT22;16877;48.810;9.282;2024-03-08T08:26:01;14.50;66.80
1367;DHT22;16877;48.810;9.282;2024-03-08T08:28:28;14.50;66.70
1367;DHT22;16877;48.810;9.282;2024-03-08T08:30:56;14.40;66.70
1367;DHT22;16877;48.810;9.282;2024-03-08T08:33:25;14.80;67.10
1367;DHT22;16877;48.810;9.282;2024-03-08T08:35:52;14.50;66.70
1367;DHT22;16877;48.810;9.282;2024-03-08T08:38:19;14.60;66.90
1367;DHT22;16877;48.810;9.282;2024-03-08T08:40:47;14.60;66.70
1367;DHT22;16877;48.810;9.282;2024-03-08T08:43:15;14.60;66.60
1367;DHT22;16877;48.810;9.282;2024-03-08T08:45:43;14.70;66.50
1367;DHT22;16877;48.810;9.282;2024-03-08T08:48:09;15.00;66.90
1367;DHT22;16877;48.810;9.282;2024-03-08T08:50:36;14.90;66.70
1367;DHT22;16877;48.810;9.282;2024-03-08T08:53:03;14.80;66.50
1367;DHT22;16877;48.810;9.282;2024-03-08T08:55:32;14.80;66.30
1367;DHT22;16877;48.810;9.282;2024-03-08T08:58:02;14.90;66.40
1367;DHT22;16877;48.810;9.282;2024-03-08T09:00:29;14.70;66.00
1367;DHT22;16877;48.810;9.282;2024-03-08T09:02:57;14.80;66.00
1367;DHT22;16877;48.810;9.282;2024-03-08T09:05:24;14.80;66.00
1367;DHT22;16877;48.810;9.282;2024-03-08T09:07:51;14.90;66.20
1367;DHT22;16877;48.810;9.282;2024-03-08T09:10:19;14.80;65.90
1367;DHT22;16877;48.810;9.282;2024-03-08T09:12:46;14.90;66.00
1367;DHT22;16877;48.810;9.282;2024-03-08T09:15:15;15.00;66.20
1367;DHT22;16877;48.810;9.282;2024-03-08T09:17:43;15.10;66.30
1367;DHT22;16877;48.810;9.282;2024-03-08T09:20:10;15.00;65.90
1367;DHT22;16877;48.810;9.282;2024-03-08T09:22:40;15.00;65.90
1367;DHT22;16877;48.810;9.282;2024-03-08T09:25:07;15.30;66.20
1367;DHT22;16877;48.810;9.282;2024-03-08T09:27:35;15.10;65.90
1367;DHT22;16877;48.810;9.282;2024-03-08T09:30:02;15.40;66.10
1367;DHT22;16877;48.810;9.282;2024-03-08T09:32:31;15.20;65.70
1367;DHT22;16877;48.810;9.282;2024-03-08T09:34:58;15.30;66.10
1367;DHT22;16877;48.810;9.282;2024-03-08T09:37:26;15.30;65.70
1367;DHT22;16877;48.810;9.282;2024-03-08T09:39:53;15.20;65.60
1367;DHT22;16877;48.810;9.282;2024-03-08T09:42:19;15.40;65.80
1367;DHT22;16877;48.810;9.282;2024-03-08T09:44:47;15.20;65.50
1367;DHT22;16877;48.810;9.282;2024-03-08T09:47:14;15.60;65.90
1367;DHT22;16877;48.810;9.282;2024-03-08T09:49:42;15.40;65.80
1367;DHT22;16877;48.810;9.282;2024-03-08T09:52:10;15.50;65.60
1367;DHT22;16877;48.810;9.282;2024-03-08T09:54:38;15.40;65.50
1367;DHT22;16877;48.810;9.282;2024-03-08T09:57:06;15.60;65.50
1367;DHT22;16877;48.810;9.282;2024-03-08T09:59:34;15.50;65.50
1367;DHT22;16877;48.810;9.282;2024-03-08T10:02:14;15.70;65.50
1367;DHT22;16877;48.810;9.282;2024-03-08T10:04:43;15.80;65.70
1367;DHT22;16877;48.810;9.282;2024-03-08T10:07:12;15.80;65.50
1367;DHT22;16877;48.810;9.282;2024-03-08T10:09:38;15.80;65.30
1367;DHT22;16877;48.810;9.282;2024-03-08T10:12:07;16.10;65.70
1367;DHT22;16877;48.810;9.282;2024-03-08T10:14:39;15.80;65.20
1367;DHT22;16877;48.810;9.282;2024-03-08T10:17:06;15.90;65.20
1367;DHT22;16877;48.810;9.282;2024-03-08T10:19:32;16.00;65.20
1367;DHT22;16877;48.810;9.282;2024-03-08T10:22:01;16.20;65.20
1367;DHT22;16877;48.810;9.282;2024-03-08T10:24:30;16.10;64.90
1367;DHT22;16877;48.810;9.282;2024-03-08T10:26:59;16.40;65.10
1367;DHT22;16877;48.810;9.282;2024-03-08T10:29:27;16.40;65.00
1367;DHT22;16877;48.810;9.282;2024-03-08T10:31:54;16.60;64.90
1367;DHT22;16877;48.810;9.282;2024-03-08T10:34:22;16.60;64.70
1367;DHT22;16877;48.810;9.282;2024-03-08T10:36:50;16.50;64.50
1367;DHT22;16877;48.810;9.282;2024-03-08T10:39:22;16.60;64.20
1367;DHT22;16877;48.810;9.282;2024-03-08T10:41:53;16.50;63.90
1367;DHT22;16877;48.810;9.282;2024-03-08T10:44:32;16.60;64.00
1367;DHT22;16877;48.810;9.282;2024-03-08T10:47:02;16.80;64.30
1367;DHT22;16877;48.810;9.282;2024-03-08T10:49:31;16.80;64.30
1367;DHT22;16877;48.810;9.282;2024-03-08T10:52:02;16.90;64.40
1367;DHT22;16877;48.810;9.282;2024-03-08T10:54:31;16.80;64.00
1367;DHT22;16877;48.810;9.282;2024-03-08T10:56:59;17.10;64.30
1367;DHT22;16877;48.810;9.282;2024-03-08T10:59:26;17.00;63.90
1367;DHT22;16877;48.810;9.282;2024-03-08T11:01:54;17.30;64.10
1367;DHT22;16877;48.810;9.282;2024-03-08T11:04:20;17.20;64.00
1367;DHT22;16877;48.810;9.282;2024-03-08T11:06:50;17.40;64.10
1367;DHT22;16877;48.810;9.282;2024-03-08T11:09:29;17.50;64.90
1367;DHT22;16877;48.810;9.282;2024-03-08T11:12:18;17.60;63.90
1367;DHT22;16877;48.810;9.282;2024-03-08T11:14:46;17.90;63.90
1367;DHT22;16877;48.810;9.282;2024-03-08T11:17:15;18.50;64.50
1367;DHT22;16877;48.810;9.282;2024-03-08T11:19:46;18.50;63.70
1367;DHT22;16877;48.810;9.282;2024-03-08T11:22:21;19.00;64.20
1367;DHT22;16877;48.810;9.282;2024-03-08T11:24:50;19.70;64.30
1367;DHT22;16877;48.810;9.282;2024-03-08T11:27:17;19.80;63.30
1367;DHT22;16877;48.810;9.282;2024-03-08T11:29:59;19.90;62.10
1367;DHT22;16877;48.810;9.282;2024-03-08T11:32:35;20.90;63.50
1367;DHT22;16877;48.810;9.282;2024-03-08T11:35:06;21.30;62.40
1367;DHT22;16877;48.810;9.282;2024-03-08T11:37:34;21.70;62.00
1367;DHT22;16877;48.810;9.282;2024-03-08T11:40:11;22.10;61.50
1367;DHT22;16877;48.810;9.282;2024-03-08T11:42:40;22.50;60.30
1367;DHT22;16877;48.810;9.282;2024-03-08T11:45:08;23.00;60.20
1367;DHT22;16877;48.810;9.282;2024-03-08T11:47:36;23.60;59.80
1367;DHT22;16877;48.810;9.282;2024-03-08T11:50:06;24.10;59.70
1367;DHT22;16877;48.810;9.282;2024-03-08T11:52:36;24.50;59.00
1367;DHT22;16877;48.810;9.282;2024-03-08T11:55:05;25.00;58.80
1367;DHT22;16877;48.810;9.282;2024-03-08T11:57:32;25.20;58.30
1367;DHT22;16877;48.810;9.282;2024-03-08T11:59:59;25.30;57.70
1367;DHT22;16877;48.810;9.282;2024-03-08T12:02:32;25.70;57.20
1367;DHT22;16877;48.810;9.282;2024-03-08T12:05:01;25.90;56.70
1367;DHT22;16877;48.810;9.282;2024-03-08T12:07:28;26.20;56.30
1367;DHT22;16877;48.810;9.282;2024-03-08T12:10:17;26.90;56.10
1367;DHT22;16877;48.810;9.282;2024-03-08T12:12:44;27.10;55.40
1367;DHT22;16877;48.810;9.282;2024-03-08T12:15:12;27.40;54.90
1367;DHT22;16877;48.810;9.282;2024-03-08T12:17:39;27.60;54.70
1367;DHT22;16877;48.810;9.282;2024-03-08T12:20:13;28.40;54.60
1367;DHT22;16877;48.810;9.282;2024-03-08T12:22:41;28.40;54.30
1367;DHT22;16877;48.810;9.282;2024-03-08T12:25:09;29.00;54.60
1367;DHT22;16877;48.810;9.282;2024-03-08T12:27:39;29.00;53.80
1367;DHT22;16877;48.810;9.282;2024-03-08T12:30:19;29.50;53.80
1367;DHT22;16877;48.810;9.282;2024-03-08T12:32:50;29.40;52.90
1367;DHT22;16877;48.810;9.282;2024-03-08T12:35:19;30.00;53.20
1367;DHT22;16877;48.810;9.282;2024-03-08T12:37:48;29.80;52.60
1367;DHT22;16877;48.810;9.282;2024-03-08T12:40:17;30.20;52.40
1367;DHT22;16877;48.810;9.282;2024-03-08T12:42:46;30.30;52.20
1367;DHT22;16877;48.810;9.282;2024-03-08T12:45:14;30.70;52.00
1367;DHT22;16877;48.810;9.282;2024-03-08T12:47:41;30.70;53.10
1367;DHT22;16877;48.810;9.282;2024-03-08T12:50:09;30.80;54.20
1367;DHT22;16877;48.810;9.282;2024-03-08T12:52:36;30.90;55.20
1367;DHT22;16877;48.810;9.282;2024-03-08T12:55:03;31.20;55.30
1367;DHT22;16877;48.810;9.282;2024-03-08T12:57:33;31.40;54.60
1367;DHT22;16877;48.810;9.282;2024-03-08T13:00:01;31.40;54.70
1367;DHT22;16877;48.810;9.282;2024-03-08T13:02:29;31.40;55.50
1367;DHT22;16877;48.810;9.282;2024-03-08T13:04:57;31.50;55.80
1367;DHT22;16877;48.810;9.282;2024-03-08T13:07:24;31.60;55.50
1367;DHT22;16877;48.810;9.282;2024-03-08T13:09:52;31.70;55.60
1367;DHT22;16877;48.810;9.282;2024-03-08T13:12:19;31.90;55.90
1367;DHT22;16877;48.810;9.282;2024-03-08T13:14:45;32.20;56.20
1367;DHT22;16877;48.810;9.282;2024-03-08T13:17:14;32.60;55.80
1367;DHT22;16877;48.810;9.282;2024-03-08T13:19:41;32.40;55.60
1367;DHT22;16877;48.810;9.282;2024-03-08T13:22:08;32.50;55.80
1367;DHT22;16877;48.810;9.282;2024-03-08T13:24:38;33.00;55.80
1367;DHT22;16877;48.810;9.282;2024-03-08T13:27:07;32.80;55.10
1367;DHT22;16877;48.810;9.282;2024-03-08T13:29:45;33.00;55.30
1367;DHT22;16877;48.810;9.282;2024-03-08T13:32:14;33.00;55.20
1367;DHT22;16877;48.810;9.282;2024-03-08T13:34:41;33.10;55.30
1367;DHT22;16877;48.810;9.282;2024-03-08T13:37:08;33.10;55.00
1367;DHT22;16877;48.810;9.282;2024-03-08T13:39:37;33.20;54.80
1367;DHT22;16877;48.810;9.282;2024-03-08T13:42:09;33.50;55.00
1367;DHT22;16877;48.810;9.282;2024-03-08T13:44:39;33.40;55.00
1367;DHT22;16877;48.810;9.282;2024-03-08T13:47:06;33.50;54.90
1367;DHT22;16877;48.810;9.282;2024-03-08T13:49:34;33.60;54.50
1367;DHT22;16877;48.810;9.282;2024-03-08T13:52:02;34.00;54.90
1367;DHT22;16877;48.810;9.282;2024-03-08T13:54:29;33.60;54.40
1367;DHT22;16877;48.810;9.282;2024-03-08T13:56:57;33.60;54.50
1367;DHT22;16877;48.810;9.282;2024-03-08T13:59:24;33.50;54.70
1367;DHT22;16877;48.810;9.282;2024-03-08T14:01:55;33.80;54.70
1367;DHT22;16877;48.810;9.282;2024-03-08T14:04:21;33.90;54.60
1367;DHT22;16877;48.810;9.282;2024-03-08T14:06:50;34.20;54.90
1367;DHT22;16877;48.810;9.282;2024-03-08T14:09:22;34.00;54.70
1367;DHT22;16877;48.810;9.282;2024-03-08T14:11:50;34.30;54.70
1367;DHT22;16877;48.810;9.282;2024-03-08T14:14:19;34.10;54.70
1367;DHT22;16877;48.810;9.282;2024-03-08T14:16:46;34.00;54.50
1367;DHT22;16877;48.810;9.282;2024-03-08T14:19:13;34.00;54.40
1367;DHT22;16877;48.810;9.282;2024-03-08T14:21:40;34.30;54.50
1367;DHT22;16877;48.810;9.282;2024-03-08T14:24:10;34.30;54.80
1367;DHT22;16877;48.810;9.282;2024-03-08T14:26:36;34.50;54.30
1367;DHT22;16877;48.810;9.282;2024-03-08T14:29:04;34.20;47.60
1367;DHT22;16877;48.810;9.282;2024-03-08T14:31:31;34.30;47.10
1367;DHT22;16877;48.810;9.282;2024-03-08T14:33:57;34.50;48.30
1367;DHT22;16877;48.810;9.282;2024-03-08T14:36:24;34.40;50.00
1367;DHT22;16877;48.810;9.282;2024-03-08T14:38:52;34.60;50.80
1367;DHT22;16877;48.810;9.282;2024-03-08T14:41:20;34.60;50.90
1367;DHT22;16877;48.810;9.282;2024-03-08T14:43:47;34.50;50.70
1367;DHT22;16877;48.810;9.282;2024-03-08T14:46:14;34.80;50.90
1367;DHT22;16877;48.810;9.282;2024-03-08T14:48:42;34.80;51.30
1367;DHT22;16877;48.810;9.282;2024-03-08T14:51:09;34.70;50.90
1367;DHT22;16877;48.810;9.282;2024-03-08T14:53:37;34.60;50.70
1367;DHT22;16877;48.810;9.282;2024-03-08T14:56:06;34.80;50.90
1367;DHT22;16877;48.810;9.282;2024-03-08T14:58:34;34.80;50.90
1367;DHT22;16877;48.810;9.282;2024-03-08T15:01:03;35.10;51.00
1367;DHT22;16877;48.810;9.282;2024-03-08T15:03:35;34.80;50.80
1367;DHT22;16877;48.810;9.282;2024-03-08T15:06:01;34.90;51.00
1367;DHT22;16877;48.810;9.282;2024-03-08T15:08:33;34.90;50.80
1367;DHT22;16877;48.810;9.282;2024-03-08T15:11:00;34.90;50.70
1367;DHT22;16877;48.810;9.282;2024-03-08T15:13:27;34.90;50.70
1367;DHT22;16877;48.810;9.282;2024-03-08T15:16:05;34.80;50.70
1367;DHT22;16877;48.810;9.282;2024-03-08T15:18:33;34.90;50.80
1367;DHT22;16877;48.810;9.282;2024-03-08T15:21:02;34.70;50.50
1367;DHT22;16877;48.810;9.282;2024-03-08T15:23:32;34.70;50.50
1367;DHT22;16877;48.810;9.282;2024-03-08T15:25:59;34.70;50.60
1367;DHT22;16877;48.810;9.282;2024-03-08T15:28:29;34.70;50.50
1367;DHT22;16877;48.810;9.282;2024-03-08T15:31:02;34.60;50.50
1367;DHT22;16877;48.810;9.282;2024-03-08T15:33:33;34.60;50.60
1367;DHT22;16877;48.810;9.282;2024-03-08T15:36:00;34.60;50.70
1367;DHT22;16877;48.810;9.282;2024-03-08T15:38:33;34.60;50.80
1367;DHT22;16877;48.810;9.282;2024-03-08T15:40:59;34.40;50.70
1367;DHT22;16877;48.810;9.282;2024-03-08T15:43:26;34.30;50.70
1367;DHT22;16877;48.810;9.282;2024-03-08T15:45:53;34.10;51.00
1367;DHT22;16877;48.810;9.282;2024-03-08T15:48:20;34.30;51.30
1367;DHT22;16877;48.810;9.282;2024-03-08T15:50:48;34.10;51.30